Luton, United Kingdom

23. tammikuuta 2019 klo 23:15 (GMT) (GMT +0000)
Aston | | Change Station

Kork 302 ft 51.89 °N, 0.16 °W | Updated 5 minutes ago

Selkeää
Selkeää
27.9 °F
Tuntuu kuin 28 °F
N
0
Tuuli Suunnaltaan vaihteleva Tuuli ilmansuunnasta Pohjoinen
Gusts 0.0 mph

Tänään
Korkea -- | Matala -- °F
--% Sateen mahd.
Eilen
Korkea -- | Matala -- °F
Precip. -- tuumaa
Ilmanpaine 29.74 tuumaa
Näkyvyys 5.0 mailia
Pilviä
Tuulen hyytävyys 28 °F
Kastepiste 23 °F
Ilmankosteus 83%
Sademäärä 0.07 tuumaa
Lumensyvyys Ei saatavilla
7:52 AM 4:31 PM
Vähenevä kupera kuu, 89% visible
METAR EGGW 232250Z AUTO 29006KT 8000 NCD M01/M02 Q1007
Ilmanpaine 29.74 tuumaa
Näkyvyys 5.0 mailia
Pilviä
Tuulen hyytävyys 28 °F
Kastepiste 23 °F
Ilmankosteus 83%
Sademäärä 0.07 tuumaa
Lumensyvyys Ei saatavilla
7:52 AM 4:31 PM
Vähenevä kupera kuu, 89% visible
METAR EGGW 232250Z AUTO 29006KT 8000 NCD M01/M02 Q1007

Get Severe Weather Alerts

Thanks for signing up!

Be on the lookout for a verification email in your inbox.

You'll start receiving the daily forecast at 6 AM.

×

10-Day Weather Forecast

×

Almanac

Tähtitiede

Jan. 23, 2019 Nousuaika Laskuaika
Valoisa aika
Porvarillinen hämärä
Nauttinen hämärä
Astronominen hämärä
Kuu
Näkyvän valon pituus
Päivän pituus
Tomorrow will be .
, % of the Moon is Illuminated

Tämän päivän ennätykset

Country Highs Country Lows

Community

WunderPhotos

Category 6

Welcome to Category 6. This is the collective home for Weather Underground's featured writeups by Dr. Jeff Masters (right), Bob Henson (left), Chris Burt, and other regular contributors.

Nearby

Ilmanlaatu

  Ilmanlaatu AQ Index Pollutant
Not available.

Lumensyvyys

Station Depth Korkeus

Maanjäristysaktiivisuus

Paikkakunta Distance Mag. Time & Date
Minimum magnitude displayed is 2.5.

Coastal Water Temperatures

Paikka Lämpötila

Stations

Lähimmät sääasemat

Aseman sijainti Lämpötila Tuulen hyytävyys Kastepiste Ilmankosteus Tuuli Precip. Kork Päivitetty Tyyppi